NATURA VA

 INFORMACIÓN METAR y TAF
METAR FOR LESO
ADDS - METARS form results

(2242 UTC 17 June 2019)
Data provider http://aviationweather.gov/metar/data/
 
METAR text: LESO 172230Z AUTO 28003KT 210V320 9999 OVC009 18/16 Q1014
Conditions at: LESO (SAN SEBASTIAN/FU, ES) observed 2230 UTC 17 June 2019
Temperature: 18.0°C (64°F)
Dewpoint: 16.0°C (61°F) [RH = 88%]
Pressure (altimeter): 29.94 inches Hg (1014.0 mb)
Winds: from the W (280 degrees) at 3 MPH (3 knots; 1.5 m/s)
Visibility: 6 or more miles (10+ km)
Ceiling: 900 feet AGL
Clouds: overcast cloud deck at 900 feet AGL
Weather: no significant weather observed at this time

METAR text: LESO 172200Z AUTO VRB02KT 9000 BKN010 18/16 Q1014
Conditions at: LESO (SAN SEBASTIAN/FU, ES) observed 2200 UTC 17 June 2019
Temperature: 18.0°C (64°F)
Dewpoint: 16.0°C (61°F) [RH = 88%]
Pressure (altimeter): 29.94 inches Hg (1014.0 mb)
Winds: variable direction winds at 2 MPH (2 knots; 1.0 m/s)
Visibility: 6 miles ( 9 km)
Ceiling: 1000 feet AGL
Clouds: broken clouds at 1000 feet AGL
Weather: no significant weather observed at this time

Forecast for: AMD
Text: TAF AMD LESO 172004Z 1720/1818 01007KT 9999 SCT020 TX27/1813Z TN15/1805Z
Forecast period: 2000 UTC 17 June 2019 to 1800 UTC 18 June 2019
Forecast type: FROM: standard forecast or significant change
Winds: from the N (10 degrees) at 8 MPH (7 knots; 3.6 m/s)
Visibility: 6 or more miles 10+ km)
Ceiling: at least 12,000 feet AGL
Clouds: scattered clouds at 2000 feet AGL
Weather: no significant weather forecast for this period
Text: TEMPO 1720/1724 27010KT BKN010
Forecast period: 2000 UTC 17 June 2019 to 0000 UTC 18 June 2019
Forecast type: TEMPORARY: The following changes expected for less than half the time period
Winds: from the W (270 degrees) at 12 MPH (10 knots; 5.1 m/s)
Visibility: missing
Ceiling: 1000 feet AGL
Clouds: broken clouds at 1000 feet AGL
Weather: no significant weather forecast for this period

 MAPA DE AEROPUERTO

 INFORMACIÓN DE PISTA
Pista 04 Longitud 5755 ft Ancho 148 ft
Elevación 10 ft Umbral desplazado 0 ft Rumbo de pista 39
Pista 22 Longitud 5755 ft Ancho 148 ft
Elevación 15 ft Umbral desplazado 0 ft Rumbo de pista 219

 FRECUANCIAS DEL AEROPUERTO
Tipo TWR Nombre SAN SEBAST Frecuencia 119.85 MHZ

 RADIO AYUDAS DEL AEROPUERTO
Tipo NDB-DME Nombre San Sebastian Frecuencia 328 KHZ
Tipo VOR-DME Nombre San Sebastian Frecuencia 117900 KHZ



Powered by Virtual Airlines Manager [v2.6.2]